Time;durP1;ratioP1;P1;durP2;ratioP2;P2;SDS_P1;SDS_P2;PMS_P1;PMS_P2;Temp;Humidity;BMP_temperature;BMP_pressure;BME280_temperature;BME280_humidity;BME280_pressure;Samples;Min_cycle;Max_cycle;Signal;HPM_P1;HPM_P2
2023/08/06 00:01:58;;;;;;;7.40;3.75;;;19.10;95.30;;;;;;4984854;28;20026;-91
2023/08/06 00:04:24;;;;;;;6.05;3.38;;;19.00;95.30;;;;;;4993923;28;20096;-91
2023/08/06 00:06:50;;;;;;;8.02;3.60;;;18.90;95.60;;;;;;4991837;28;20037;-91
2023/08/06 00:09:15;;;;;;;4.65;3.13;;;18.90;95.60;;;;;;4992094;28;20135;-91
2023/08/06 00:11:43;;;;;;;7.00;3.22;;;18.90;95.30;;;;;;4992256;28;20034;-91
2023/08/06 00:14:09;;;;;;;7.85;4.22;;;18.90;95.30;;;;;;5007657;28;20029;-91
2023/08/06 00:16:35;;;;;;;5.60;3.92;;;18.90;95.30;;;;;;4991473;28;20486;-91
2023/08/06 00:19:00;;;;;;;5.95;3.72;;;18.90;95.30;;;;;;4992407;28;20114;-91
2023/08/06 00:21:26;;;;;;;5.93;3.90;;;18.90;95.30;;;;;;4994267;28;20018;-91
2023/08/06 00:23:52;;;;;;;7.30;4.50;;;18.90;95.30;;;;;;4990222;28;20058;-91
2023/08/06 00:26:17;;;;;;;6.80;4.15;;;18.90;95.30;;;;;;4992457;28;20022;-91
2023/08/06 00:28:43;;;;;;;8.60;3.60;;;18.90;95.30;;;;;;4991236;28;20574;-92
2023/08/06 00:31:08;;;;;;;6.72;3.65;;;18.90;95.30;;;;;;5004160;28;20498;-91
2023/08/06 00:33:34;;;;;;;4.38;3.05;;;18.70;95.30;;;;;;4998732;28;20023;-92
2023/08/06 00:36:00;;;;;;;9.40;3.10;;;18.90;95.30;;;;;;4989384;28;22260;-91
2023/08/06 00:38:25;;;;;;;5.20;3.30;;;19.10;95.40;;;;;;4991591;28;20029;-91
2023/08/06 00:40:51;;;;;;;9.25;3.33;;;18.90;95.30;;;;;;4989284;28;20479;-90
2023/08/06 00:43:16;;;;;;;6.95;3.47;;;18.90;95.30;;;;;;4991795;28;20044;-91
2023/08/06 00:45:43;;;;;;;4.40;3.00;;;18.90;95.30;;;;;;4991452;28;20034;-93
2023/08/06 00:48:08;;;;;;;5.03;2.65;;;18.90;95.30;;;;;;5004095;28;20108;-92
2023/08/06 00:50:34;;;;;;;8.25;2.70;;;18.90;95.30;;;;;;4988966;28;20120;-93
2023/08/06 00:53:00;;;;;;;4.03;2.92;;;18.90;95.30;;;;;;4990883;28;20073;-92
2023/08/06 00:55:26;;;;;;;2.55;2.30;;;18.90;95.40;;;;;;4994654;28;20053;-92
2023/08/06 00:57:52;;;;;;;3.53;2.70;;;19.00;95.40;;;;;;4989050;28;20399;-92
2023/08/06 01:00:23;;;;;;;5.85;2.70;;;18.90;95.30;;;;;;4994180;28;20029;-93
2023/08/06 01:02:48;;;;;;;;;;;19.00;95.40;;;;;;4992379;28;20022;-92
2023/08/06 01:05:14;;;;;;;5.93;3.00;;;18.90;95.30;;;;;;4988595;28;19929;-91
2023/08/06 01:08:04;;;;;;;4.57;3.13;;;18.90;95.30;;;;;;4994196;28;20029;-92
2023/08/06 01:10:50;;;;;;;5.43;3.47;;;18.90;95.30;;;;;;4984425;28;20045;-92
2023/08/06 01:13:30;;;;;;;3.97;3.00;;;18.90;95.30;;;;;;4984103;28;20854;-91
2023/08/06 01:15:58;;;;;;;3.97;2.97;;;18.90;95.30;;;;;;4987411;28;20038;-91
2023/08/06 01:18:23;;;;;;;3.45;2.80;;;18.90;95.30;;;;;;4991255;28;20081;-92
2023/08/06 01:20:52;;;;;;;4.18;2.83;;;19.20;95.40;;;;;;4986209;28;20042;-92
2023/08/06 01:23:19;;;;;;;3.95;2.28;;;18.90;95.30;;;;;;5005950;28;20049;-92
2023/08/06 01:26:23;;;;;;;4.10;2.78;;;18.90;95.30;;;;;;4991545;28;20031;-91
2023/08/06 01:28:52;;;;;;;8.63;3.10;;;18.90;95.30;;;;;;5002344;28;20023;-91
2023/08/06 01:31:31;;;;;;;6.20;3.30;;;18.90;95.30;;;;;;4984531;28;20463;-92
2023/08/06 01:33:59;;;;;;;3.38;2.50;;;18.90;95.30;;;;;;5004250;28;20122;-91
2023/08/06 01:36:25;;;;;;;4.65;2.78;;;18.90;95.30;;;;;;5002159;28;20073;-93
2023/08/06 01:38:53;;;;;;;6.65;3.05;;;18.90;95.30;;;;;;4988212;28;20027;-93
2023/08/06 01:41:21;;;;;;;5.55;3.15;;;18.90;95.30;;;;;;5006240;28;20019;-92
2023/08/06 01:43:47;;;;;;;5.50;2.40;;;18.80;95.30;;;;;;5004544;28;20077;-93
2023/08/06 01:46:13;;;;;;;9.15;2.42;;;18.90;95.30;;;;;;5005337;28;20018;-93
2023/08/06 01:48:38;;;;;;;3.70;2.75;;;18.80;95.30;;;;;;4990825;28;20084;-90
2023/08/06 01:51:05;;;;;;;3.78;2.30;;;18.90;95.30;;;;;;4991005;28;20030;-92
2023/08/06 01:53:37;;;;;;;7.00;2.47;;;18.90;95.30;;;;;;4990637;28;20022;-92
2023/08/06 01:56:03;;;;;;;6.32;2.30;;;18.80;95.30;;;;;;4987773;28;20046;-92
2023/08/06 01:58:29;;;;;;;4.63;2.42;;;18.90;95.30;;;;;;5002113;28;20026;-93
2023/08/06 02:00:57;;;;;;;3.03;2.40;;;18.90;95.30;;;;;;4991922;28;20368;-93
2023/08/06 02:03:23;;;;;;;6.60;2.35;;;18.90;95.30;;;;;;4980404;28;20023;-93
2023/08/06 02:05:49;;;;;;;3.90;2.55;;;18.90;95.30;;;;;;4989692;28;20053;-92
2023/08/06 02:08:14;;;;;;;5.82;2.47;;;18.80;95.20;;;;;;5005833;28;20494;-92
2023/08/06 02:10:41;;;;;;;7.03;2.40;;;18.80;95.20;;;;;;4991353;28;20030;-93
2023/08/06 02:13:07;;;;;;;4.00;2.58;;;18.80;95.20;;;;;;4980115;28;20033;-92
2023/08/06 02:15:32;;;;;;;6.43;2.88;;;18.80;95.20;;;;;;4997541;28;20110;-93
2023/08/06 02:17:58;;;;;;;2.65;2.22;;;19.60;95.40;;;;;;5007183;28;20022;-91
2023/08/06 02:20:23;;;;;;;3.95;2.50;;;18.90;95.20;;;;;;5004978;28;20028;-92
2023/08/06 02:22:49;;;;;;;2.90;2.53;;;18.80;95.20;;;;;;4990492;28;20090;-92
2023/08/06 02:25:15;;;;;;;3.65;2.38;;;20.10;95.50;;;;;;5006104;28;20030;-91
2023/08/06 02:27:40;;;;;;;3.50;2.30;;;18.80;95.20;;;;;;4990142;28;20096;-91
2023/08/06 02:30:06;;;;;;;3.75;2.13;;;18.80;95.10;;;;;;4990435;28;20025;-92
2023/08/06 02:32:35;;;;;;;4.45;2.45;;;18.80;95.10;;;;;;5001038;28;20029;-91
2023/08/06 02:35:01;;;;;;;3.67;2.38;;;18.80;95.10;;;;;;4991633;28;20073;-91
2023/08/06 02:37:27;;;;;;;3.70;2.40;;;18.80;95.20;;;;;;5006375;28;20506;-92
2023/08/06 02:39:53;;;;;;;2.67;2.00;;;18.80;95.10;;;;;;4990438;28;20054;-93
2023/08/06 02:42:18;;;;;;;4.88;2.17;;;18.80;95.10;;;;;;5005729;28;20022;-93
2023/08/06 02:44:44;;;;;;;4.63;2.58;;;18.80;95.10;;;;;;4990681;28;20073;-93
2023/08/06 02:47:09;;;;;;;3.35;2.58;;;18.80;95.10;;;;;;4987410;28;20027;-92
2023/08/06 02:49:35;;;;;;;2.83;2.53;;;19.00;95.20;;;;;;4988893;28;20034;-92
2023/08/06 02:52:01;;;;;;;2.60;2.28;;;18.80;95.10;;;;;;4985533;28;20069;-92
2023/08/06 02:54:26;;;;;;;3.65;2.33;;;18.80;95.10;;;;;;5006700;28;20537;-92
2023/08/06 02:56:52;;;;;;;4.72;2.55;;;18.80;95.10;;;;;;4989326;28;20046;-92
2023/08/06 02:59:17;;;;;;;3.22;2.22;;;18.90;95.10;;;;;;5006224;28;20053;-89
2023/08/06 03:01:43;;;;;;;5.93;2.65;;;18.80;95.10;;;;;;5002406;28;20023;-92
2023/08/06 03:04:09;;;;;;;5.57;2.78;;;18.80;95.10;;;;;;4997326;28;20032;-92
2023/08/06 03:06:34;;;;;;;3.97;2.28;;;18.80;95.10;;;;;;4998316;28;20025;-93
2023/08/06 03:09:00;;;;;;;4.18;2.30;;;18.80;95.10;;;;;;4993883;28;20394;-93
2023/08/06 03:11:26;;;;;;;3.25;2.25;;;18.80;95.10;;;;;;4993336;28;20026;-92
2023/08/06 03:13:51;;;;;;;2.65;2.17;;;18.80;95.00;;;;;;4993828;28;20026;-92
2023/08/06 03:16:17;;;;;;;5.97;2.80;;;18.80;95.00;;;;;;5009412;28;20027;-93
2023/08/06 03:18:42;;;;;;;4.18;2.50;;;18.80;95.00;;;;;;4993274;28;20027;-93
2023/08/06 03:21:08;;;;;;;3.28;2.28;;;18.80;95.00;;;;;;4993384;28;20036;-92
2023/08/06 03:23:34;;;;;;;4.47;2.35;;;18.80;95.00;;;;;;5009936;28;20054;-93
2023/08/06 03:26:03;;;;;;;3.08;2.40;;;18.80;95.00;;;;;;4993384;28;20030;-91
2023/08/06 03:28:29;;;;;;;9.23;2.20;;;18.80;95.00;;;;;;5009421;28;20030;-91
2023/08/06 03:31:04;;;;;;;6.57;2.80;;;18.80;95.00;;;;;;4993457;28;20250;-92
2023/08/06 03:33:30;;;;;;;4.25;2.60;;;18.80;95.00;;;;;;5008044;28;20022;-91
2023/08/06 03:35:56;;;;;;;2.78;2.13;;;18.80;95.00;;;;;;4993916;28;20035;-93
2023/08/06 03:38:22;;;;;;;4.78;2.80;;;18.80;95.00;;;;;;5009119;28;20084;-93
2023/08/06 03:40:49;;;;;;;5.32;2.60;;;18.80;94.90;;;;;;4992429;28;20026;-93
2023/08/06 03:43:15;;;;;;;4.28;2.53;;;18.80;94.90;;;;;;4993271;28;20046;-93
2023/08/06 03:45:41;;;;;;;6.03;2.67;;;18.80;94.90;;;;;;4990976;28;20496;-93
2023/08/06 03:48:07;;;;;;;5.05;2.60;;;18.80;94.90;;;;;;4993893;28;20386;-92
2023/08/06 03:50:33;;;;;;;3.88;2.40;;;18.80;94.90;;;;;;4993443;28;20033;-93
2023/08/06 03:52:59;;;;;;;2.92;2.38;;;18.80;94.90;;;;;;4993441;28;20023;-93
2023/08/06 03:55:25;;;;;;;2.72;2.30;;;18.80;94.90;;;;;;5009695;28;20045;-93
2023/08/06 03:57:50;;;;;;;5.43;2.45;;;19.50;95.10;;;;;;4995749;28;20023;-91
2023/08/06 04:00:16;;;;;;;3.33;2.35;;;18.80;94.90;;;;;;5009292;28;20053;-92
2023/08/06 04:02:42;;;;;;;3.47;2.40;;;18.80;94.90;;;;;;4992844;28;20065;-93
2023/08/06 04:05:08;;;;;;;3.65;2.72;;;18.80;94.80;;;;;;4993000;28;20434;-92
2023/08/06 04:07:34;;;;;;;4.25;3.13;;;18.80;94.80;;;;;;4993879;28;20015;-94
2023/08/06 04:10:02;;;;;;;3.72;2.75;;;18.80;94.80;;;;;;4992005;28;20124;-92
2023/08/06 04:12:28;;;;;;;3.53;2.55;;;18.80;94.90;;;;;;5011580;28;20030;-94
2023/08/06 04:14:54;;;;;;;6.65;2.88;;;18.80;94.80;;;;;;4992559;28;20033;-94
2023/08/06 04:17:21;;;;;;;4.70;2.75;;;18.80;94.80;;;;;;4993521;28;20041;-92
2023/08/06 04:19:50;;;;;;;4.43;2.95;;;18.80;94.80;;;;;;4993339;28;20041;-93
2023/08/06 04:22:16;;;;;;;4.43;2.67;;;18.80;94.80;;;;;;4993134;28;20062;-93
2023/08/06 04:24:43;;;;;;;5.07;2.75;;;18.80;94.80;;;;;;4993320;28;20062;-93
2023/08/06 04:27:09;;;;;;;3.58;2.22;;;18.80;94.80;;;;;;4992072;28;20574;-94
2023/08/06 04:29:35;;;;;;;4.50;2.42;;;18.80;94.80;;;;;;5008842;28;20027;-93
2023/08/06 04:32:01;;;;;;;3.72;2.30;;;18.80;94.80;;;;;;4992549;28;20031;-93
2023/08/06 04:34:29;;;;;;;3.70;2.28;;;18.80;94.80;;;;;;4995162;28;20030;-93
2023/08/06 04:36:55;;;;;;;4.88;2.13;;;18.70;94.70;;;;;;4993833;28;20035;-95
2023/08/06 04:39:20;;;;;;;2.83;2.08;;;18.80;94.80;;;;;;4994764;28;20033;-93
2023/08/06 04:41:46;;;;;;;2.65;2.17;;;18.80;94.80;;;;;;4996137;28;20031;-94
2023/08/06 04:44:12;;;;;;;2.83;1.80;;;18.80;94.80;;;;;;4991790;28;20061;-92
2023/08/06 04:46:37;;;;;;;2.45;1.90;;;18.70;94.70;;;;;;4993137;28;20025;-91
2023/08/06 04:49:03;;;;;;;8.20;2.33;;;18.80;94.70;;;;;;4991976;28;20065;-91
2023/08/06 04:51:28;;;;;;;3.72;2.22;;;18.80;94.70;;;;;;5007715;28;20029;-91
2023/08/06 04:53:54;;;;;;;2.30;2.00;;;18.80;95.10;;;;;;4992173;28;20066;-93
2023/08/06 04:56:19;;;;;;;2.90;1.98;;;18.70;94.70;;;;;;4992574;28;20034;-93
2023/08/06 04:58:45;;;;;;;2.38;1.55;;;19.10;94.80;;;;;;4990266;28;20439;-92
2023/08/06 05:01:11;;;;;;;5.10;2.13;;;18.70;94.70;;;;;;4991087;28;20113;-92
2023/08/06 05:03:36;;;;;;;4.82;1.95;;;18.70;94.70;;;;;;5013459;28;20386;-91
2023/08/06 05:06:02;;;;;;;2.17;1.83;;;18.70;94.70;;;;;;4993563;28;20030;-89
2023/08/06 05:08:27;;;;;;;7.22;1.92;;;18.80;94.70;;;;;;5010968;28;20028;-91
2023/08/06 05:10:53;;;;;;;7.32;1.85;;;18.70;94.70;;;;;;4991728;28;20026;-92
2023/08/06 05:13:19;;;;;;;2.70;1.73;;;18.70;94.70;;;;;;4994345;28;20022;-95
2023/08/06 05:15:46;;;;;;;3.50;2.00;;;18.70;94.70;;;;;;5000318;28;20037;-93
2023/08/06 05:18:12;;;;;;;2.63;1.80;;;18.80;94.70;;;;;;5000681;28;20027;-94
2023/08/06 05:20:39;;;;;;;9.23;1.92;;;18.70;94.70;;;;;;5009349;28;20030;-94
2023/08/06 05:23:05;;;;;;;6.57;2.17;;;18.70;94.70;;;;;;4992778;28;20022;-93
2023/08/06 05:25:30;;;;;;;6.40;2.05;;;18.70;94.70;;;;;;4993202;28;20049;-94
2023/08/06 05:27:56;;;;;;;5.00;1.80;;;18.70;94.70;;;;;;4992767;28;20038;-91
2023/08/06 05:30:22;;;;;;;2.92;1.75;;;18.70;94.70;;;;;;4993086;28;20029;-92
2023/08/06 05:32:47;;;;;;;4.88;2.17;;;18.70;94.70;;;;;;4996390;28;20094;-92
2023/08/06 05:35:13;;;;;;;6.15;2.00;;;18.70;94.70;;;;;;4993495;28;20030;-93
2023/08/06 05:37:38;;;;;;;5.95;1.70;;;18.70;94.70;;;;;;4992971;28;20085;-91
2023/08/06 05:40:04;;;;;;;3.38;2.05;;;18.70;94.60;;;;;;4992849;28;20046;-92
2023/08/06 05:42:30;;;;;;;3.58;1.85;;;18.70;94.60;;;;;;5007832;28;20121;-92
2023/08/06 05:44:56;;;;;;;6.43;2.05;;;18.70;94.60;;;;;;4992109;28;20037;-92
2023/08/06 05:47:21;;;;;;;3.03;1.90;;;18.70;94.60;;;;;;4990986;28;20639;-92
2023/08/06 05:49:47;;;;;;;2.17;1.67;;;18.70;94.60;;;;;;4990471;28;20030;-90
2023/08/06 05:52:13;;;;;;;2.17;1.40;;;18.70;94.60;;;;;;4991286;28;20040;-92
2023/08/06 05:54:40;;;;;;;2.72;1.83;;;18.70;94.60;;;;;;5008272;28;20564;-91
2023/08/06 05:57:06;;;;;;;3.45;1.60;;;18.70;94.60;;;;;;4991013;28;20418;-89
2023/08/06 05:59:31;;;;;;;3.75;1.73;;;18.70;94.60;;;;;;4993741;28;20017;-91
2023/08/06 06:01:57;;;;;;;2.50;1.48;;;18.70;94.60;;;;;;4992844;28;20018;-92
2023/08/06 06:04:23;;;;;;;2.60;1.75;;;18.70;94.60;;;;;;4992725;28;20493;-90
2023/08/06 06:06:48;;;;;;;12.05;2.42;;;18.70;94.60;;;;;;5007866;28;20019;-90
2023/08/06 06:09:14;;;;;;;3.15;1.85;;;18.70;94.60;;;;;;4992978;28;20044;-89
2023/08/06 06:11:39;;;;;;;2.50;1.52;;;18.80;94.60;;;;;;4993767;28;20022;-90
2023/08/06 06:14:05;;;;;;;2.28;1.70;;;18.80;94.60;;;;;;4992808;28;20030;-92
2023/08/06 06:16:31;;;;;;;4.38;1.98;;;18.80;94.60;;;;;;4991761;28;20040;-90
2023/08/06 06:18:57;;;;;;;1.45;1.33;;;19.10;94.90;;;;;;4990443;28;20026;-90
2023/08/06 06:21:23;;;;;;;6.85;1.95;;;18.80;94.60;;;;;;4991132;28;20360;-91
2023/08/06 06:23:51;;;;;;;1.73;1.05;;;18.80;94.60;;;;;;5011077;28;20080;-87
2023/08/06 06:26:19;;;;;;;2.53;1.30;;;18.80;94.50;;;;;;4996906;28;20057;-88
2023/08/06 06:28:45;;;;;;;2.83;1.75;;;18.80;94.50;;;;;;4992879;28;20049;-89
2023/08/06 06:31:11;;;;;;;1.83;1.20;;;18.80;94.60;;;;;;4992162;28;20026;-90
2023/08/06 06:33:36;;;;;;;4.20;1.20;;;18.80;94.70;;;;;;5006872;28;20109;-89
2023/08/06 06:36:03;;;;;;;2.25;1.30;;;18.80;94.70;;;;;;4993997;28;20038;-90
2023/08/06 06:38:29;;;;;;;2.75;1.30;;;18.80;94.70;;;;;;4994063;28;20730;-89
2023/08/06 06:40:58;;;;;;;2.25;1.63;;;18.80;94.70;;;;;;5011003;28;20869;-92
2023/08/06 06:43:24;;;;;;;2.97;1.40;;;18.80;94.70;;;;;;4997810;28;20029;-92
2023/08/06 06:45:58;;;;;;;1.30;1.20;;;18.80;94.70;;;;;;5013487;28;20018;-89
2023/08/06 06:48:24;;;;;;;1.63;0.88;;;18.80;94.70;;;;;;4993938;28;20100;-89
2023/08/06 06:50:50;;;;;;;2.35;1.30;;;18.80;94.70;;;;;;4995043;28;20384;-89
2023/08/06 06:53:15;;;;;;;1.27;1.17;;;18.80;94.70;;;;;;4994248;28;20037;-89
2023/08/06 06:55:41;;;;;;;2.65;1.20;;;18.80;94.70;;;;;;4996582;28;20038;-87
2023/08/06 06:58:06;;;;;;;4.65;1.10;;;18.80;94.70;;;;;;4993311;28;20022;-87
2023/08/06 07:00:32;;;;;;;1.63;1.20;;;18.80;94.70;;;;;;4994286;28;20470;-87
2023/08/06 07:02:57;;;;;;;3.63;1.50;;;18.80;94.70;;;;;;4993467;28;20050;-88
2023/08/06 07:05:23;;;;;;;2.20;1.17;;;18.80;94.70;;;;;;4993297;28;20033;-88
2023/08/06 07:07:49;;;;;;;1.65;1.15;;;18.80;94.80;;;;;;4996011;28;20084;-91
2023/08/06 07:10:14;;;;;;;1.00;0.80;;;18.80;94.80;;;;;;4996311;28;20064;-88
2023/08/06 07:12:40;;;;;;;2.05;1.30;;;18.80;94.70;;;;;;4994699;28;20472;-91
2023/08/06 07:15:09;;;;;;;1.98;1.00;;;18.80;94.80;;;;;;4995890;28;20050;-82
2023/08/06 07:17:34;;;;;;;1.27;0.90;;;18.80;94.70;;;;;;4996027;28;20109;-87
2023/08/06 07:20:00;;;;;;;1.42;1.00;;;18.70;94.60;;;;;;4994728;28;20094;-88
2023/08/06 07:22:25;;;;;;;1.73;1.23;;;18.80;94.70;;;;;;4993999;28;20026;-85
2023/08/06 07:24:51;;;;;;;1.95;1.05;;;18.80;94.70;;;;;;4993572;28;20023;-89
2023/08/06 07:27:17;;;;;;;2.22;1.25;;;18.70;94.70;;;;;;4992400;28;20038;-88
2023/08/06 07:29:42;;;;;;;1.20;0.90;;;19.30;94.80;;;;;;4993794;28;20633;-86
2023/08/06 07:32:08;;;;;;;2.10;1.08;;;18.80;94.70;;;;;;4997112;28;20030;-94
2023/08/06 07:34:33;;;;;;;2.05;1.10;;;19.30;94.80;;;;;;4994557;28;20031;-94
2023/08/06 07:36:59;;;;;;;1.13;0.75;;;18.80;94.70;;;;;;4994015;28;20030;-95
2023/08/06 07:39:25;;;;;;;1.13;1.00;;;18.70;94.60;;;;;;4993929;28;20076;-91
2023/08/06 07:41:50;;;;;;;1.55;1.10;;;18.70;94.60;;;;;;4993661;28;20054;-90
2023/08/06 07:44:16;;;;;;;3.70;0.60;;;18.80;94.70;;;;;;4993700;28;20382;-88
2023/08/06 07:46:42;;;;;;;1.40;0.93;;;18.70;94.60;;;;;;5011881;28;20033;-90
2023/08/06 07:49:08;;;;;;;2.08;0.50;;;18.70;94.60;;;;;;4994945;28;20058;-92
2023/08/06 07:51:33;;;;;;;0.63;0.63;;;18.80;94.60;;;;;;4994011;28;20030;-90
2023/08/06 07:53:59;;;;;;;0.85;0.50;;;18.70;94.60;;;;;;4993946;28;20030;-91
2023/08/06 07:56:24;;;;;;;0.47;0.47;;;18.80;94.60;;;;;;4998674;28;20085;-87
2023/08/06 07:58:50;;;;;;;0.40;0.40;;;18.80;94.60;;;;;;4994640;28;20026;-91
2023/08/06 08:01:16;;;;;;;0.95;0.65;;;18.80;94.60;;;;;;4994421;28;20254;-92
2023/08/06 08:03:41;;;;;;;1.67;0.50;;;18.80;94.50;;;;;;4998846;28;20634;-92
2023/08/06 08:06:07;;;;;;;0.50;0.50;;;18.90;94.50;;;;;;4994292;28;20391;-94
2023/08/06 08:08:33;;;;;;;0.43;0.43;;;18.80;94.50;;;;;;4995992;28;20029;-95
2023/08/06 08:11:02;;;;;;;0.82;0.60;;;18.80;94.50;;;;;;4998999;28;20037;-93
2023/08/06 08:13:27;;;;;;;0.45;0.45;;;18.80;94.50;;;;;;4999078;28;20033;-96
2023/08/06 08:15:58;;;;;;;0.40;0.40;;;18.80;94.40;;;;;;4997504;28;20372;-94
2023/08/06 08:18:24;;;;;;;0.70;0.30;;;18.80;94.40;;;;;;5006704;28;20479;-96
2023/08/06 08:20:50;;;;;;;0.60;0.60;;;18.80;94.40;;;;;;5013413;28;20093;-95
2023/08/06 08:23:16;;;;;;;0.93;0.52;;;18.80;94.40;;;;;;4995625;28;20030;-87
2023/08/06 08:25:44;;;;;;;5.40;0.50;;;18.80;94.40;;;;;;4993752;28;20027;-95
2023/08/06 08:28:13;;;;;;;2.75;0.60;;;18.80;94.30;;;;;;4993906;28;20037;-95
2023/08/06 08:30:41;;;;;;;1.13;0.50;;;18.80;94.50;;;;;;4993326;28;20510;-95
2023/08/06 08:33:07;;;;;;;0.50;0.50;;;18.80;94.40;;;;;;4995817;28;20037;-94
2023/08/06 08:35:34;;;;;;;2.55;0.75;;;18.80;94.40;;;;;;4993658;28;20046;-96
2023/08/06 08:37:59;;;;;;;0.73;0.60;;;18.80;94.40;;;;;;5009835;28;20019;-94
2023/08/06 08:40:34;;;;;;;0.63;0.50;;;18.70;94.10;;;;;;4999027;28;20022;-95
2023/08/06 08:43:00;;;;;;;0.50;0.50;;;18.60;94.30;;;;;;5014421;28;20035;-96
2023/08/06 08:45:29;;;;;;;0.30;0.30;;;18.60;94.40;;;;;;5012131;28;20035;-93
2023/08/06 08:47:55;;;;;;;0.45;0.45;;;18.70;94.40;;;;;;5011080;28;20450;-94
2023/08/06 08:50:21;;;;;;;0.30;0.30;;;18.60;94.40;;;;;;4995331;28;20023;-95
2023/08/06 08:52:55;;;;;;;0.40;0.40;;;18.80;94.40;;;;;;4995231;28;20086;-93
2023/08/06 08:55:22;;;;;;;0.30;0.30;;;18.70;94.30;;;;;;5000493;28;20450;-94
2023/08/06 08:57:51;;;;;;;0.40;0.40;;;18.70;94.30;;;;;;5012529;28;20037;-93
2023/08/06 09:00:17;;;;;;;0.63;0.45;;;18.70;94.30;;;;;;4988269;28;20026;-95
2023/08/06 09:02:45;;;;;;;0.50;0.50;;;18.70;94.30;;;;;;5000554;28;20033;-92
2023/08/06 09:05:12;;;;;;;0.40;0.40;;;18.70;94.30;;;;;;5001527;28;20086;-92
2023/08/06 09:07:49;;;;;;;0.60;0.60;;;18.70;94.30;;;;;;4999015;28;20492;-88
2023/08/06 09:10:17;;;;;;;0.40;0.40;;;18.70;94.30;;;;;;4988560;28;20092;-93
2023/08/06 09:12:44;;;;;;;3.10;0.50;;;18.70;94.30;;;;;;4971882;28;20057;-95
2023/08/06 09:15:10;;;;;;;0.40;0.40;;;18.70;94.30;;;;;;4982736;28;20030;-95
2023/08/06 09:17:37;;;;;;;0.40;0.40;;;18.70;94.30;;;;;;4973313;28;20597;-96
2023/08/06 09:20:27;;;;;;;3.50;0.40;;;18.70;94.30;;;;;;4976710;28;20055;-96
2023/08/06 09:22:56;;;;;;;0.40;0.40;;;19.20;94.40;;;;;;4996231;28;20122;-95
2023/08/06 09:25:24;;;;;;;0.40;0.40;;;18.70;94.30;;;;;;4970269;28;20398;-91
2023/08/06 09:27:51;;;;;;;0.95;0.45;;;18.70;94.30;;;;;;4979073;28;20026;-95
2023/08/06 09:30:38;;;;;;;0.65;0.43;;;18.70;94.30;;;;;;4975840;28;20034;-94
2023/08/06 09:33:10;;;;;;;0.40;0.40;;;18.70;94.30;;;;;;4972888;28;20050;-95
2023/08/06 09:35:36;;;;;;;4.28;0.73;;;18.70;94.30;;;;;;4973836;28;20031;-93
2023/08/06 09:38:10;;;;;;;0.30;0.30;;;18.70;94.30;;;;;;4973528;28;20033;-91
2023/08/06 09:40:36;;;;;;;0.32;0.32;;;18.70;94.30;;;;;;4974792;28;20035;-93
2023/08/06 09:43:02;;;;;;;0.65;0.30;;;18.70;94.30;;;;;;4994405;28;20036;-92
2023/08/06 09:45:35;;;;;;;0.80;0.43;;;18.70;94.30;;;;;;4976919;28;20073;-90
2023/08/06 09:48:09;;;;;;;4.30;0.40;;;18.80;94.40;;;;;;4970865;28;20023;-93
2023/08/06 09:50:38;;;;;;;0.25;0.25;;;18.70;94.30;;;;;;4972048;28;20018;-96
2023/08/06 09:53:06;;;;;;;2.17;0.57;;;18.70;94.30;;;;;;4966087;28;20022;-94
2023/08/06 09:55:32;;;;;;;0.40;0.40;;;18.70;94.30;;;;;;4969686;28;20045;-95
2023/08/06 09:57:59;;;;;;;0.30;0.30;;;18.70;94.30;;;;;;4972395;28;20382;-87
2023/08/06 10:00:25;;;;;;;0.38;0.38;;;18.70;94.30;;;;;;4980906;28;20061;-94
2023/08/06 10:02:56;;;;;;;0.40;0.40;;;18.70;94.30;;;;;;4982745;28;20111;-89
2023/08/06 10:05:23;;;;;;;0.40;0.40;;;18.70;94.30;;;;;;4977438;28;20027;-93
2023/08/06 10:07:57;;;;;;;0.75;0.43;;;18.70;94.30;;;;;;4981129;28;20030;-94
2023/08/06 10:10:57;;;;;;;0.30;0.30;;;18.70;94.30;;;;;;4980850;28;20034;-96
2023/08/06 10:13:23;;;;;;;;;;;18.70;94.40;;;;;;4976409;28;20022;-93
2023/08/06 10:15:51;;;;;;;0.40;0.40;;;18.70;94.40;;;;;;4989386;28;20279;-93
2023/08/06 10:18:21;;;;;;;0.30;0.30;;;18.70;94.30;;;;;;4999949;28;20031;-94
2023/08/06 10:21:32;;;;;;;0.30;0.30;;;18.70;94.40;;;;;;4978329;28;20422;-96
2023/08/06 10:23:58;;;;;;;0.40;0.40;;;18.70;94.30;;;;;;4945140;28;20037;-89
2023/08/06 10:26:49;;;;;;;0.40;0.40;;;19.70;94.60;;;;;;4957664;28;20035;-90
2023/08/06 10:29:36;;;;;;;0.40;0.40;;;18.70;94.40;;;;;;4952652;28;20023;-93
2023/08/06 10:32:04;;;;;;;0.50;0.50;;;18.70;94.40;;;;;;4942705;29;20042;-93
2023/08/06 10:34:57;;;;;;;0.70;0.32;;;18.70;94.40;;;;;;4955912;28;20114;-95
2023/08/06 10:37:34;;;;;;;0.40;0.40;;;18.70;94.50;;;;;;4954590;28;20044;-94
2023/08/06 10:39:59;;;;;;;0.32;0.32;;;18.70;94.50;;;;;;4948154;28;20468;-95
2023/08/06 10:42:29;;;;;;;2.35;0.50;;;18.70;94.50;;;;;;4960522;28;20042;-95
2023/08/06 10:45:36;;;;;;;2.22;0.60;;;18.80;94.50;;;;;;4951695;28;20018;-94
2023/08/06 10:48:02;;;;;;;0.30;0.30;;;18.70;94.50;;;;;;4931701;29;20114;-90
2023/08/06 10:50:27;;;;;;;0.50;0.50;;;18.70;94.50;;;;;;4946946;29;20035;-92
2023/08/06 10:52:53;;;;;;;0.40;0.40;;;18.70;94.50;;;;;;4932322;29;20563;-94
2023/08/06 10:55:24;;;;;;;0.30;0.30;;;18.70;94.50;;;;;;4943537;29;20040;-94
2023/08/06 10:57:49;;;;;;;0.75;0.40;;;18.80;94.50;;;;;;4946907;29;20020;-96
2023/08/06 11:00:15;;;;;;;0.65;0.40;;;18.70;94.50;;;;;;4942497;29;20079;-94
2023/08/06 11:02:41;;;;;;;0.40;0.40;;;18.80;94.50;;;;;;4936332;29;20031;-94
2023/08/06 11:05:11;;;;;;;0.40;0.40;;;18.80;94.50;;;;;;4942157;29;20020;-96
2023/08/06 11:07:52;;;;;;;0.40;0.40;;;18.70;94.50;;;;;;4941392;29;20019;-91
2023/08/06 11:10:21;;;;;;;1.13;0.80;;;18.70;94.50;;;;;;4940963;28;20447;-94
2023/08/06 11:12:49;;;;;;;0.43;0.43;;;18.70;94.50;;;;;;4934858;29;20040;-91
2023/08/06 11:15:20;;;;;;;0.40;0.40;;;18.80;94.50;;;;;;4940291;29;20496;-94
2023/08/06 11:17:47;;;;;;;0.47;0.47;;;18.80;94.50;;;;;;4956519;29;20027;-95
2023/08/06 11:20:13;;;;;;;0.70;0.38;;;18.80;94.50;;;;;;4942247;29;20027;-95
2023/08/06 11:22:39;;;;;;;0.50;0.40;;;19.00;94.60;;;;;;4969629;28;20372;-92
2023/08/06 11:25:06;;;;;;;0.60;0.50;;;18.70;94.50;;;;;;4995898;28;20089;-95
2023/08/06 11:27:32;;;;;;;0.55;0.50;;;18.70;94.50;;;;;;4979318;28;20019;-95
2023/08/06 11:29:58;;;;;;;0.40;0.40;;;18.70;94.50;;;;;;4985738;28;20035;-95
2023/08/06 11:32:24;;;;;;;0.30;0.30;;;18.70;94.50;;;;;;4975213;28;20023;-90
2023/08/06 11:34:50;;;;;;;0.55;0.52;;;18.70;94.50;;;;;;4986097;28;20575;-93
2023/08/06 11:37:15;;;;;;;1.98;0.60;;;18.70;94.50;;;;;;4975884;28;20117;-94
2023/08/06 11:39:48;;;;;;;0.30;0.30;;;18.70;94.50;;;;;;4976475;28;20050;-94
2023/08/06 11:42:13;;;;;;;0.30;0.30;;;18.60;94.50;;;;;;4977755;28;20379;-92
2023/08/06 11:44:44;;;;;;;0.40;0.40;;;18.70;94.50;;;;;;4976621;28;20019;-87
2023/08/06 11:47:17;;;;;;;0.57;0.30;;;18.70;94.50;;;;;;4991527;28;20022;-96
2023/08/06 11:49:51;;;;;;;0.30;0.30;;;18.70;94.50;;;;;;4973461;28;20031;-95
2023/08/06 11:52:23;;;;;;;0.40;0.40;;;18.70;94.50;;;;;;4974054;28;20086;-90
2023/08/06 11:55:06;;;;;;;0.38;0.38;;;18.70;94.50;;;;;;4991813;28;20023;-93
2023/08/06 11:57:35;;;;;;;0.82;0.43;;;18.70;94.50;;;;;;4976802;28;20439;-92
2023/08/06 12:00:05;;;;;;;4.03;1.17;;;18.70;94.50;;;;;;4992220;28;20026;-93
2023/08/06 12:02:35;;;;;;;0.57;0.57;;;18.70;94.50;;;;;;4977105;28;20475;-95
2023/08/06 12:05:02;;;;;;;;;;;18.70;94.50;;;;;;4986058;28;20855;-92
2023/08/06 12:07:30;;;;;;;0.40;0.40;;;18.70;94.50;;;;;;4975813;28;19910;-94
2023/08/06 12:09:56;;;;;;;1.75;0.30;;;18.70;94.50;;;;;;4990603;28;20173;-93
2023/08/06 12:12:23;;;;;;;0.43;0.43;;;18.70;94.50;;;;;;4996823;28;20078;-94
2023/08/06 12:14:50;;;;;;;0.40;0.40;;;18.70;94.50;;;;;;4981288;28;20023;-95
2023/08/06 12:17:55;;;;;;;0.43;0.43;;;18.70;94.50;;;;;;4982879;28;20042;-96
2023/08/06 12:20:21;;;;;;;0.30;0.30;;;18.70;94.50;;;;;;4991361;28;20033;-89
2023/08/06 12:22:46;;;;;;;0.40;0.40;;;18.70;94.50;;;;;;4979528;28;20034;-94
2023/08/06 12:25:49;;;;;;;0.40;0.40;;;18.70;94.50;;;;;;4979864;28;20035;-96
2023/08/06 12:28:15;;;;;;;0.40;0.40;;;18.70;94.50;;;;;;4977502;28;20019;-96
2023/08/06 12:30:54;;;;;;;0.47;0.47;;;18.70;94.50;;;;;;4981900;28;20113;-94
2023/08/06 12:33:39;;;;;;;2.10;0.38;;;18.80;94.60;;;;;;5001218;28;20525;-92
2023/08/06 12:36:14;;;;;;;3.65;0.55;;;18.80;94.60;;;;;;4985403;28;20042;-96
2023/08/06 12:38:58;;;;;;;0.47;0.43;;;18.80;94.60;;;;;;4986227;28;20046;-96
2023/08/06 12:41:24;;;;;;;2.22;0.88;;;18.70;94.50;;;;;;4995217;28;20130;-92
2023/08/06 12:43:50;;;;;;;1.38;0.50;;;18.70;94.50;;;;;;4974209;28;20097;-91
2023/08/06 12:46:15;;;;;;;0.82;0.50;;;18.80;94.60;;;;;;4997935;28;20027;-90
2023/08/06 12:48:41;;;;;;;1.00;0.57;;;18.70;94.80;;;;;;4974893;28;20019;-93
2023/08/06 12:51:06;;;;;;;1.75;0.68;;;18.70;94.60;;;;;;4982417;28;20085;-91
2023/08/06 12:53:32;;;;;;;0.55;0.40;;;19.30;94.70;;;;;;4973717;28;20027;-95